Maui, HI

3:38 PM HST on October 20, 2014 (GMT -1000)
Kehalani | Change Station
CLOSE
Current Station
Personal Weather Station
Location: Wailuku, HI
Elevation: 358 ft
Nearby Weather Stations

Elev 358 ft 20.87 °N, 156.50 °W | Updated 8 minutes ago

Scattered Clouds
Scattered Clouds
82.9 °F
Feels Like 88 °F
N
11.4
Wind Variable Wind from ENE

Today
High -- | Low -- °F
--% Chance of Precip.
Yesterday
High -- | Low -- °F
Precip. -- in
6:23 AM 5:57 PM
Waning Crescent, 8% visible
Pressure 29.94 in
Visibility 10.0 miles
Clouds Scattered Clouds 4400 ft
Heat Index 88 °F
Dew Point 72 °F
Humidity 71%
Rainfall 0.00 in
Snow Depth Not available.
UV 4 out of 12
Pollen Not available.
Air Quality Not available.
Flu Activity Sporadic
METAR PHOG 210054Z 07015G23KT 10SM SCT044 30/21 A2992 RMK AO2 PK WND 07026/0006 SLP137 T03000206

More Conditions Fewer Conditions

Pressure 29.94 in
Visibility 10.0 miles
Clouds Scattered Clouds 4400 ft
Heat Index 88 °F
Dew Point 72 °F
Humidity 71%
Rainfall 0.00 in
Snow Depth Not available.
UV 4 out of 12
Pollen Not available.
Air Quality Not available.
Flu Activity Sporadic
METAR PHOG 210054Z 07015G23KT 10SM SCT044 30/21 A2992 RMK AO2 PK WND 07026/0006 SLP137 T03000206

More Conditions Fewer Conditions

10-Day Weather Forecast

Almanac

Astronomy

Oct. 20, 2014 Rise Set
Actual Time 6:23 AM HST 5:57 PM HST
Civil Twilight 6:00 AM HST 6:20 PM HST
Nautical Twilight 5:34 AM HST 6:46 PM HST
Astronomical Twilight 5:08 AM HST 7:11 PM HST
Moon 3:44 AM HST (10/20) 4:07 PM HST (10/20)
Length of Visible Light 12h 19m
Length of Day
11h 34m
Tomorrow will be 1m 7s shorter.
Waning Crescent, 8% of the Moon is Illuminated
Today
Waning Crescent
Oct 23
New
Oct 30
First Quarter
Nov 6
Full
Nov 14
Last Quarter

Today's Extremes

State Highs State Lows

Community

WunderPhotos

Upload Photos

1,763,579 photos uploaded!

Nearby

Snow Depth

Station Depth Elevation
No new snow has been reported.

Earthquake Activity

City Distance Mag. Time & Date
No recent earthquake activity has been reported nearby.
Minimum magnitude displayed is 2.5.

Coastal Water Temperatures

Place Temperature
No Stations Reporting

Nearby Weather Stations